sensor_id;sensor_type;location;lat;lon;timestamp;temperature;humidity
55211;DHT22;41082;52.822;6.666;2023-08-12T00:00:52;20.80;99.90
55211;DHT22;41082;52.822;6.666;2023-08-12T00:03:17;20.80;99.90
55211;DHT22;41082;52.822;6.666;2023-08-12T00:05:45;20.80;99.90
55211;DHT22;41082;52.822;6.666;2023-08-12T00:08:11;20.70;99.90
55211;DHT22;41082;52.822;6.666;2023-08-12T00:10:36;20.70;99.90
55211;DHT22;41082;52.822;6.666;2023-08-12T00:13:02;20.70;99.90
55211;DHT22;41082;52.822;6.666;2023-08-12T00:15:27;20.70;99.90
55211;DHT22;41082;52.822;6.666;2023-08-12T00:17:53;20.60;99.90
55211;DHT22;41082;52.822;6.666;2023-08-12T00:20:18;20.60;99.90
55211;DHT22;41082;52.822;6.666;2023-08-12T00:22:44;20.60;99.90
55211;DHT22;41082;52.822;6.666;2023-08-12T00:25:09;20.60;99.90
55211;DHT22;41082;52.822;6.666;2023-08-12T00:27:35;20.60;99.90
55211;DHT22;41082;52.822;6.666;2023-08-12T00:30:03;20.60;99.90
55211;DHT22;41082;52.822;6.666;2023-08-12T00:32:29;20.50;99.90
55211;DHT22;41082;52.822;6.666;2023-08-12T00:34:55;20.50;99.90
55211;DHT22;41082;52.822;6.666;2023-08-12T00:37:21;20.50;99.90
55211;DHT22;41082;52.822;6.666;2023-08-12T00:39:46;20.50;99.90
55211;DHT22;41082;52.822;6.666;2023-08-12T00:42:12;20.50;99.90
55211;DHT22;41082;52.822;6.666;2023-08-12T00:44:37;20.50;99.90
55211;DHT22;41082;52.822;6.666;2023-08-12T00:47:03;20.40;99.90
55211;DHT22;41082;52.822;6.666;2023-08-12T00:49:31;20.40;99.90
55211;DHT22;41082;52.822;6.666;2023-08-12T00:51:57;20.40;99.90
55211;DHT22;41082;52.822;6.666;2023-08-12T00:54:24;20.40;99.90
55211;DHT22;41082;52.822;6.666;2023-08-12T00:56:50;20.40;99.90
55211;DHT22;41082;52.822;6.666;2023-08-12T00:59:17;20.40;99.90
55211;DHT22;41082;52.822;6.666;2023-08-12T01:01:43;20.40;99.90
55211;DHT22;41082;52.822;6.666;2023-08-12T01:04:09;20.40;99.90
55211;DHT22;41082;52.822;6.666;2023-08-12T01:06:36;20.40;99.90
55211;DHT22;41082;52.822;6.666;2023-08-12T01:09:03;20.40;99.90
55211;DHT22;41082;52.822;6.666;2023-08-12T01:17:15;20.30;99.90
55211;DHT22;41082;52.822;6.666;2023-08-12T01:19:41;20.30;99.90
55211;DHT22;41082;52.822;6.666;2023-08-12T01:22:09;20.30;99.90
55211;DHT22;41082;52.822;6.666;2023-08-12T01:24:37;20.30;99.90
55211;DHT22;41082;52.822;6.666;2023-08-12T01:27:04;20.30;99.90
55211;DHT22;41082;52.822;6.666;2023-08-12T01:29:35;20.30;99.90
55211;DHT22;41082;52.822;6.666;2023-08-12T01:34:46;20.20;99.90
55211;DHT22;41082;52.822;6.666;2023-08-12T01:37:21;20.20;99.90
55211;DHT22;41082;52.822;6.666;2023-08-12T01:39:49;20.20;99.90
55211;DHT22;41082;52.822;6.666;2023-08-12T01:42:17;20.20;99.90
55211;DHT22;41082;52.822;6.666;2023-08-12T01:44:43;20.20;99.90
55211;DHT22;41082;52.822;6.666;2023-08-12T01:47:09;20.20;99.90
55211;DHT22;41082;52.822;6.666;2023-08-12T01:49:35;20.10;99.90
55211;DHT22;41082;52.822;6.666;2023-08-12T01:52:00;20.10;99.90
55211;DHT22;41082;52.822;6.666;2023-08-12T01:54:26;20.10;99.90
55211;DHT22;41082;52.822;6.666;2023-08-12T01:56:51;20.10;99.90
55211;DHT22;41082;52.822;6.666;2023-08-12T01:59:17;20.10;99.90
55211;DHT22;41082;52.822;6.666;2023-08-12T02:01:42;20.10;99.90
55211;DHT22;41082;52.822;6.666;2023-08-12T02:04:08;20.10;99.90
55211;DHT22;41082;52.822;6.666;2023-08-12T02:06:34;20.00;99.90
55211;DHT22;41082;52.822;6.666;2023-08-12T02:08:59;20.10;99.90
55211;DHT22;41082;52.822;6.666;2023-08-12T02:11:25;20.00;99.90
55211;DHT22;41082;52.822;6.666;2023-08-12T02:13:50;20.00;99.90
55211;DHT22;41082;52.822;6.666;2023-08-12T02:16:16;20.00;99.90
55211;DHT22;41082;52.822;6.666;2023-08-12T02:18:42;20.00;99.90
55211;DHT22;41082;52.822;6.666;2023-08-12T02:21:07;20.00;99.90
55211;DHT22;41082;52.822;6.666;2023-08-12T02:23:33;20.00;99.90
55211;DHT22;41082;52.822;6.666;2023-08-12T02:25:58;20.00;99.90
55211;DHT22;41082;52.822;6.666;2023-08-12T02:28:25;20.00;99.90
55211;DHT22;41082;52.822;6.666;2023-08-12T02:30:51;20.00;99.90
55211;DHT22;41082;52.822;6.666;2023-08-12T02:33:16;20.00;99.90
55211;DHT22;41082;52.822;6.666;2023-08-12T02:35:42;20.00;99.90
55211;DHT22;41082;52.822;6.666;2023-08-12T02:38:08;20.00;99.90
55211;DHT22;41082;52.822;6.666;2023-08-12T02:40:33;20.00;99.90
55211;DHT22;41082;52.822;6.666;2023-08-12T02:42:59;20.00;99.90
55211;DHT22;41082;52.822;6.666;2023-08-12T02:45:24;20.10;99.90
55211;DHT22;41082;52.822;6.666;2023-08-12T02:47:50;20.00;99.90
55211;DHT22;41082;52.822;6.666;2023-08-12T02:50:16;20.00;99.90
55211;DHT22;41082;52.822;6.666;2023-08-12T02:52:42;20.00;99.90
55211;DHT22;41082;52.822;6.666;2023-08-12T02:55:07;20.10;99.90
55211;DHT22;41082;52.822;6.666;2023-08-12T02:57:33;20.10;99.90
55211;DHT22;41082;52.822;6.666;2023-08-12T02:59:59;20.10;99.90
55211;DHT22;41082;52.822;6.666;2023-08-12T03:02:24;20.10;99.90
55211;DHT22;41082;52.822;6.666;2023-08-12T03:04:50;20.10;99.90
55211;DHT22;41082;52.822;6.666;2023-08-12T03:07:15;20.10;99.90
55211;DHT22;41082;52.822;6.666;2023-08-12T03:09:41;20.10;99.90
55211;DHT22;41082;52.822;6.666;2023-08-12T03:12:07;20.00;99.90
55211;DHT22;41082;52.822;6.666;2023-08-12T03:14:32;20.10;99.90
55211;DHT22;41082;52.822;6.666;2023-08-12T03:16:58;20.00;99.90
55211;DHT22;41082;52.822;6.666;2023-08-12T03:19:23;20.10;99.90
55211;DHT22;41082;52.822;6.666;2023-08-12T03:21:49;20.00;99.90
55211;DHT22;41082;52.822;6.666;2023-08-12T03:24:14;20.00;99.90
55211;DHT22;41082;52.822;6.666;2023-08-12T03:26:40;20.10;99.90
55211;DHT22;41082;52.822;6.666;2023-08-12T03:29:06;20.00;99.90
55211;DHT22;41082;52.822;6.666;2023-08-12T03:31:31;20.00;99.90
55211;DHT22;41082;52.822;6.666;2023-08-12T03:33:57;20.00;99.90
55211;DHT22;41082;52.822;6.666;2023-08-12T03:36:22;20.00;99.90
55211;DHT22;41082;52.822;6.666;2023-08-12T03:38:48;20.00;99.90
55211;DHT22;41082;52.822;6.666;2023-08-12T03:41:13;20.00;99.90
55211;DHT22;41082;52.822;6.666;2023-08-12T03:43:39;20.00;99.90
55211;DHT22;41082;52.822;6.666;2023-08-12T03:46:05;20.00;99.90
55211;DHT22;41082;52.822;6.666;2023-08-12T03:48:30;20.00;99.90
55211;DHT22;41082;52.822;6.666;2023-08-12T03:50:57;20.00;99.90
55211;DHT22;41082;52.822;6.666;2023-08-12T03:53:22;20.00;99.90
55211;DHT22;41082;52.822;6.666;2023-08-12T03:55:48;19.90;99.90
55211;DHT22;41082;52.822;6.666;2023-08-12T03:58:13;19.90;99.90
55211;DHT22;41082;52.822;6.666;2023-08-12T04:00:42;19.90;99.90
55211;DHT22;41082;52.822;6.666;2023-08-12T04:03:10;19.90;99.90
55211;DHT22;41082;52.822;6.666;2023-08-12T04:05:36;19.90;99.90
55211;DHT22;41082;52.822;6.666;2023-08-12T04:08:02;19.90;99.90
55211;DHT22;41082;52.822;6.666;2023-08-12T04:10:28;20.00;99.90
55211;DHT22;41082;52.822;6.666;2023-08-12T04:12:53;19.90;99.90
55211;DHT22;41082;52.822;6.666;2023-08-12T04:15:19;19.90;99.90
55211;DHT22;41082;52.822;6.666;2023-08-12T04:17:44;20.00;99.90
55211;DHT22;41082;52.822;6.666;2023-08-12T04:20:10;20.00;99.90
55211;DHT22;41082;52.822;6.666;2023-08-12T04:22:36;20.00;99.90
55211;DHT22;41082;52.822;6.666;2023-08-12T04:25:02;20.00;99.90
55211;DHT22;41082;52.822;6.666;2023-08-12T04:27:27;20.00;99.90
55211;DHT22;41082;52.822;6.666;2023-08-12T04:29:53;20.00;99.90
55211;DHT22;41082;52.822;6.666;2023-08-12T04:32:18;20.00;99.90
55211;DHT22;41082;52.822;6.666;2023-08-12T04:34:45;20.00;99.90
55211;DHT22;41082;52.822;6.666;2023-08-12T04:37:11;20.10;99.90
55211;DHT22;41082;52.822;6.666;2023-08-12T04:39:36;20.00;99.90
55211;DHT22;41082;52.822;6.666;2023-08-12T04:42:02;20.10;99.90
55211;DHT22;41082;52.822;6.666;2023-08-12T04:44:28;20.10;99.90
55211;DHT22;41082;52.822;6.666;2023-08-12T04:46:53;20.10;99.90
55211;DHT22;41082;52.822;6.666;2023-08-12T04:49:19;20.10;99.90
55211;DHT22;41082;52.822;6.666;2023-08-12T04:51:45;20.10;99.90
55211;DHT22;41082;52.822;6.666;2023-08-12T04:54:11;20.10;99.90
55211;DHT22;41082;52.822;6.666;2023-08-12T04:56:37;20.10;99.90
55211;DHT22;41082;52.822;6.666;2023-08-12T04:59:02;20.10;99.90
55211;DHT22;41082;52.822;6.666;2023-08-12T05:01:28;20.10;99.90
55211;DHT22;41082;52.822;6.666;2023-08-12T05:03:54;20.10;99.90
55211;DHT22;41082;52.822;6.666;2023-08-12T05:06:19;20.10;99.90
55211;DHT22;41082;52.822;6.666;2023-08-12T05:08:45;20.10;99.90
55211;DHT22;41082;52.822;6.666;2023-08-12T05:11:11;20.10;99.90
55211;DHT22;41082;52.822;6.666;2023-08-12T05:13:36;20.10;99.90
55211;DHT22;41082;52.822;6.666;2023-08-12T05:16:02;20.10;99.90
55211;DHT22;41082;52.822;6.666;2023-08-12T05:18:27;20.20;99.90
55211;DHT22;41082;52.822;6.666;2023-08-12T05:20:54;20.20;99.90
55211;DHT22;41082;52.822;6.666;2023-08-12T05:23:20;20.20;99.90
55211;DHT22;41082;52.822;6.666;2023-08-12T05:25:46;20.20;99.90
55211;DHT22;41082;52.822;6.666;2023-08-12T05:28:12;20.20;99.90
55211;DHT22;41082;52.822;6.666;2023-08-12T05:30:37;20.30;99.90
55211;DHT22;41082;52.822;6.666;2023-08-12T05:33:04;20.30;99.90
55211;DHT22;41082;52.822;6.666;2023-08-12T05:35:36;20.30;99.90
55211;DHT22;41082;52.822;6.666;2023-08-12T05:38:02;20.40;99.90
55211;DHT22;41082;52.822;6.666;2023-08-12T05:40:28;20.40;99.90
55211;DHT22;41082;52.822;6.666;2023-08-12T05:42:53;20.50;99.90
55211;DHT22;41082;52.822;6.666;2023-08-12T05:45:19;20.50;99.90
55211;DHT22;41082;52.822;6.666;2023-08-12T05:47:45;20.60;99.90
55211;DHT22;41082;52.822;6.666;2023-08-12T05:50:10;20.60;99.90
55211;DHT22;41082;52.822;6.666;2023-08-12T05:52:36;20.60;99.90
55211;DHT22;41082;52.822;6.666;2023-08-12T05:55:01;20.70;99.90
55211;DHT22;41082;52.822;6.666;2023-08-12T05:57:27;20.70;99.90
55211;DHT22;41082;52.822;6.666;2023-08-12T05:59:53;20.80;99.90
55211;DHT22;41082;52.822;6.666;2023-08-12T06:02:18;20.90;99.90
55211;DHT22;41082;52.822;6.666;2023-08-12T06:04:44;21.00;99.90
55211;DHT22;41082;52.822;6.666;2023-08-12T06:07:10;21.10;99.90
55211;DHT22;41082;52.822;6.666;2023-08-12T06:09:35;21.20;99.90
55211;DHT22;41082;52.822;6.666;2023-08-12T06:12:01;21.40;99.90
55211;DHT22;41082;52.822;6.666;2023-08-12T06:14:26;21.40;99.90
55211;DHT22;41082;52.822;6.666;2023-08-12T06:16:52;21.50;99.90
55211;DHT22;41082;52.822;6.666;2023-08-12T06:19:17;21.50;99.90
55211;DHT22;41082;52.822;6.666;2023-08-12T06:21:43;21.60;99.90
55211;DHT22;41082;52.822;6.666;2023-08-12T06:24:09;21.60;99.90
55211;DHT22;41082;52.822;6.666;2023-08-12T06:26:34;21.60;99.90
55211;DHT22;41082;52.822;6.666;2023-08-12T06:29:00;21.60;99.90
55211;DHT22;41082;52.822;6.666;2023-08-12T06:31:26;21.60;99.90
55211;DHT22;41082;52.822;6.666;2023-08-12T06:33:51;21.60;99.90
55211;DHT22;41082;52.822;6.666;2023-08-12T06:36:17;21.60;99.90
55211;DHT22;41082;52.822;6.666;2023-08-12T06:38:42;21.70;99.90
55211;DHT22;41082;52.822;6.666;2023-08-12T06:41:08;21.70;99.90
55211;DHT22;41082;52.822;6.666;2023-08-12T06:43:33;21.70;99.90
55211;DHT22;41082;52.822;6.666;2023-08-12T06:46:00;21.70;99.90
55211;DHT22;41082;52.822;6.666;2023-08-12T06:48:25;21.70;99.90
55211;DHT22;41082;52.822;6.666;2023-08-12T06:50:55;21.80;99.90
55211;DHT22;41082;52.822;6.666;2023-08-12T06:53:21;21.80;99.90
55211;DHT22;41082;52.822;6.666;2023-08-12T06:55:46;21.80;99.90
55211;DHT22;41082;52.822;6.666;2023-08-12T06:58:13;21.80;99.90
55211;DHT22;41082;52.822;6.666;2023-08-12T07:00:40;21.80;99.90
55211;DHT22;41082;52.822;6.666;2023-08-12T07:03:05;21.80;99.90
55211;DHT22;41082;52.822;6.666;2023-08-12T07:05:31;21.80;99.90
55211;DHT22;41082;52.822;6.666;2023-08-12T07:07:57;21.80;99.90
55211;DHT22;41082;52.822;6.666;2023-08-12T07:10:22;21.80;99.90
55211;DHT22;41082;52.822;6.666;2023-08-12T07:12:48;21.80;99.90
55211;DHT22;41082;52.822;6.666;2023-08-12T07:15:14;21.80;99.90
55211;DHT22;41082;52.822;6.666;2023-08-12T07:17:39;21.80;99.90
55211;DHT22;41082;52.822;6.666;2023-08-12T07:20:06;21.80;99.90
55211;DHT22;41082;52.822;6.666;2023-08-12T07:22:32;21.80;99.90
55211;DHT22;41082;52.822;6.666;2023-08-12T07:24:57;21.80;99.90
55211;DHT22;41082;52.822;6.666;2023-08-12T07:27:26;21.70;99.90
55211;DHT22;41082;52.822;6.666;2023-08-12T07:29:52;21.80;99.90
55211;DHT22;41082;52.822;6.666;2023-08-12T07:32:17;21.80;99.90
55211;DHT22;41082;52.822;6.666;2023-08-12T07:34:44;21.80;99.90
55211;DHT22;41082;52.822;6.666;2023-08-12T07:37:10;21.70;99.90
55211;DHT22;41082;52.822;6.666;2023-08-12T07:39:36;21.70;99.90
55211;DHT22;41082;52.822;6.666;2023-08-12T07:42:01;21.70;99.90
55211;DHT22;41082;52.822;6.666;2023-08-12T07:44:27;21.70;99.90
55211;DHT22;41082;52.822;6.666;2023-08-12T07:46:52;21.70;99.90
55211;DHT22;41082;52.822;6.666;2023-08-12T07:49:18;21.60;99.90
55211;DHT22;41082;52.822;6.666;2023-08-12T07:51:43;21.70;99.90
55211;DHT22;41082;52.822;6.666;2023-08-12T07:54:09;21.70;99.90
55211;DHT22;41082;52.822;6.666;2023-08-12T07:56:35;21.60;99.90
55211;DHT22;41082;52.822;6.666;2023-08-12T07:59:00;21.60;99.90
55211;DHT22;41082;52.822;6.666;2023-08-12T08:01:26;21.70;99.90
55211;DHT22;41082;52.822;6.666;2023-08-12T08:03:51;21.70;99.90
55211;DHT22;41082;52.822;6.666;2023-08-12T08:06:17;21.70;99.90
55211;DHT22;41082;52.822;6.666;2023-08-12T08:08:43;21.70;99.90
55211;DHT22;41082;52.822;6.666;2023-08-12T08:11:08;21.60;99.90
55211;DHT22;41082;52.822;6.666;2023-08-12T08:13:34;21.60;99.90
55211;DHT22;41082;52.822;6.666;2023-08-12T08:16:00;21.60;99.90
55211;DHT22;41082;52.822;6.666;2023-08-12T08:18:25;21.60;99.90
55211;DHT22;41082;52.822;6.666;2023-08-12T08:20:51;21.60;99.90
55211;DHT22;41082;52.822;6.666;2023-08-12T08:23:16;21.60;99.90
55211;DHT22;41082;52.822;6.666;2023-08-12T08:25:42;21.60;99.90
55211;DHT22;41082;52.822;6.666;2023-08-12T08:28:08;21.50;99.90
55211;DHT22;41082;52.822;6.666;2023-08-12T08:30:33;21.50;99.90
55211;DHT22;41082;52.822;6.666;2023-08-12T08:32:59;21.50;99.90
55211;DHT22;41082;52.822;6.666;2023-08-12T08:35:24;21.50;99.90
55211;DHT22;41082;52.822;6.666;2023-08-12T08:37:50;21.50;99.90
55211;DHT22;41082;52.822;6.666;2023-08-12T08:40:15;21.40;99.90
55211;DHT22;41082;52.822;6.666;2023-08-12T08:42:43;21.40;99.90
55211;DHT22;41082;52.822;6.666;2023-08-12T08:45:12;21.40;99.90
55211;DHT22;41082;52.822;6.666;2023-08-12T08:47:39;21.40;99.90
55211;DHT22;41082;52.822;6.666;2023-08-12T08:50:06;21.40;99.90
55211;DHT22;41082;52.822;6.666;2023-08-12T08:52:33;21.40;99.90
55211;DHT22;41082;52.822;6.666;2023-08-12T08:55:00;21.40;99.90
55211;DHT22;41082;52.822;6.666;2023-08-12T08:57:26;21.30;99.90
55211;DHT22;41082;52.822;6.666;2023-08-12T08:59:53;21.30;99.90
55211;DHT22;41082;52.822;6.666;2023-08-12T09:02:19;21.30;99.90
55211;DHT22;41082;52.822;6.666;2023-08-12T09:04:46;21.20;99.90
55211;DHT22;41082;52.822;6.666;2023-08-12T09:07:12;21.20;99.90
55211;DHT22;41082;52.822;6.666;2023-08-12T09:09:44;21.20;99.90
55211;DHT22;41082;52.822;6.666;2023-08-12T09:12:12;21.20;99.90
55211;DHT22;41082;52.822;6.666;2023-08-12T09:14:38;21.20;99.90
55211;DHT22;41082;52.822;6.666;2023-08-12T09:17:04;21.10;99.90
55211;DHT22;41082;52.822;6.666;2023-08-12T09:19:30;21.10;99.90
55211;DHT22;41082;52.822;6.666;2023-08-12T09:21:55;21.10;99.90
55211;DHT22;41082;52.822;6.666;2023-08-12T09:24:25;21.10;99.90
55211;DHT22;41082;52.822;6.666;2023-08-12T09:26:54;21.10;99.90
55211;DHT22;41082;52.822;6.666;2023-08-12T09:29:23;21.00;99.90
55211;DHT22;41082;52.822;6.666;2023-08-12T09:31:52;21.00;99.90
55211;DHT22;41082;52.822;6.666;2023-08-12T09:34:18;21.00;99.90
55211;DHT22;41082;52.822;6.666;2023-08-12T09:36:43;21.00;99.90
55211;DHT22;41082;52.822;6.666;2023-08-12T09:39:09;21.00;99.90
55211;DHT22;41082;52.822;6.666;2023-08-12T09:41:35;20.90;99.90
55211;DHT22;41082;52.822;6.666;2023-08-12T09:44:04;21.00;99.90
55211;DHT22;41082;52.822;6.666;2023-08-12T09:46:32;21.00;99.90
55211;DHT22;41082;52.822;6.666;2023-08-12T09:48:58;21.00;99.90
55211;DHT22;41082;52.822;6.666;2023-08-12T09:51:24;21.00;99.90
55211;DHT22;41082;52.822;6.666;2023-08-12T09:53:51;21.00;99.90
55211;DHT22;41082;52.822;6.666;2023-08-12T09:56:23;21.00;99.90
55211;DHT22;41082;52.822;6.666;2023-08-12T09:58:49;21.00;99.90
55211;DHT22;41082;52.822;6.666;2023-08-12T10:01:18;21.00;99.90
55211;DHT22;41082;52.822;6.666;2023-08-12T10:03:50;21.00;99.90
55211;DHT22;41082;52.822;6.666;2023-08-12T10:06:17;21.10;99.90
55211;DHT22;41082;52.822;6.666;2023-08-12T10:08:45;21.10;99.90
55211;DHT22;41082;52.822;6.666;2023-08-12T10:11:11;21.10;99.90
55211;DHT22;41082;52.822;6.666;2023-08-12T10:13:37;21.10;99.90
55211;DHT22;41082;52.822;6.666;2023-08-12T10:16:03;21.10;99.90
55211;DHT22;41082;52.822;6.666;2023-08-12T10:18:30;21.10;99.90
55211;DHT22;41082;52.822;6.666;2023-08-12T10:21:00;21.20;99.90
55211;DHT22;41082;52.822;6.666;2023-08-12T10:23:25;21.20;99.90
55211;DHT22;41082;52.822;6.666;2023-08-12T10:25:54;21.20;99.90
55211;DHT22;41082;52.822;6.666;2023-08-12T10:28:20;21.30;99.90
55211;DHT22;41082;52.822;6.666;2023-08-12T10:30:47;21.30;99.90
55211;DHT22;41082;52.822;6.666;2023-08-12T10:33:16;21.30;99.90
55211;DHT22;41082;52.822;6.666;2023-08-12T10:35:46;21.40;99.90
55211;DHT22;41082;52.822;6.666;2023-08-12T10:38:20;21.40;99.90
55211;DHT22;41082;52.822;6.666;2023-08-12T10:40:46;21.50;99.90
55211;DHT22;41082;52.822;6.666;2023-08-12T10:43:13;21.60;99.90
55211;DHT22;41082;52.822;6.666;2023-08-12T10:45:51;21.60;99.90
55211;DHT22;41082;52.822;6.666;2023-08-12T10:48:21;21.60;99.90
55211;DHT22;41082;52.822;6.666;2023-08-12T10:50:55;21.70;99.90
55211;DHT22;41082;52.822;6.666;2023-08-12T10:53:28;21.70;99.90
55211;DHT22;41082;52.822;6.666;2023-08-12T10:55:59;21.80;99.90
55211;DHT22;41082;52.822;6.666;2023-08-12T10:58:40;21.90;99.90
55211;DHT22;41082;52.822;6.666;2023-08-12T11:01:13;22.00;99.90
55211;DHT22;41082;52.822;6.666;2023-08-12T11:03:42;22.10;99.90
55211;DHT22;41082;52.822;6.666;2023-08-12T11:06:10;22.10;99.90
55211;DHT22;41082;52.822;6.666;2023-08-12T11:08:36;22.20;99.90
55211;DHT22;41082;52.822;6.666;2023-08-12T11:11:02;22.30;99.90
55211;DHT22;41082;52.822;6.666;2023-08-12T11:13:28;22.50;99.90
55211;DHT22;41082;52.822;6.666;2023-08-12T11:16:09;22.60;99.90
55211;DHT22;41082;52.822;6.666;2023-08-12T11:18:34;22.60;99.90
55211;DHT22;41082;52.822;6.666;2023-08-12T11:21:00;22.60;99.90
55211;DHT22;41082;52.822;6.666;2023-08-12T11:23:27;22.60;99.90
55211;DHT22;41082;52.822;6.666;2023-08-12T11:25:53;22.60;99.90
55211;DHT22;41082;52.822;6.666;2023-08-12T11:28:19;22.60;99.90
55211;DHT22;41082;52.822;6.666;2023-08-12T11:30:47;22.60;99.90
55211;DHT22;41082;52.822;6.666;2023-08-12T11:33:16;22.60;99.90
55211;DHT22;41082;52.822;6.666;2023-08-12T11:35:44;22.60;99.90
55211;DHT22;41082;52.822;6.666;2023-08-12T11:38:09;22.70;99.90
55211;DHT22;41082;52.822;6.666;2023-08-12T11:40:35;22.70;99.90
55211;DHT22;41082;52.822;6.666;2023-08-12T11:43:01;22.70;99.90
55211;DHT22;41082;52.822;6.666;2023-08-12T11:45:27;22.80;99.90
55211;DHT22;41082;52.822;6.666;2023-08-12T11:47:54;22.80;99.90
55211;DHT22;41082;52.822;6.666;2023-08-12T11:50:22;22.90;99.90
55211;DHT22;41082;52.822;6.666;2023-08-12T11:52:48;23.00;99.90
55211;DHT22;41082;52.822;6.666;2023-08-12T11:55:15;23.00;99.90
55211;DHT22;41082;52.822;6.666;2023-08-12T11:57:41;23.00;99.90
55211;DHT22;41082;52.822;6.666;2023-08-12T12:00:08;23.00;99.90
55211;DHT22;41082;52.822;6.666;2023-08-12T12:02:46;23.00;99.90
55211;DHT22;41082;52.822;6.666;2023-08-12T12:05:12;23.10;99.90
55211;DHT22;41082;52.822;6.666;2023-08-12T12:07:38;23.00;99.90
55211;DHT22;41082;52.822;6.666;2023-08-12T12:10:05;23.10;99.90
55211;DHT22;41082;52.822;6.666;2023-08-12T12:12:33;23.10;99.90
55211;DHT22;41082;52.822;6.666;2023-08-12T12:15:00;23.10;99.90
55211;DHT22;41082;52.822;6.666;2023-08-12T12:17:26;23.00;99.90
55211;DHT22;41082;52.822;6.666;2023-08-12T12:19:57;23.00;99.90
55211;DHT22;41082;52.822;6.666;2023-08-12T12:22:30;23.00;99.90
55211;DHT22;41082;52.822;6.666;2023-08-12T12:25:06;22.80;99.90
55211;DHT22;41082;52.822;6.666;2023-08-12T12:27:32;22.60;99.90
55211;DHT22;41082;52.822;6.666;2023-08-12T12:29:59;22.50;99.90
55211;DHT22;41082;52.822;6.666;2023-08-12T12:32:24;22.50;99.90
55211;DHT22;41082;52.822;6.666;2023-08-12T12:34:50;22.60;99.90
55211;DHT22;41082;52.822;6.666;2023-08-12T12:37:16;22.70;99.90
55211;DHT22;41082;52.822;6.666;2023-08-12T12:39:42;22.80;99.90
55211;DHT22;41082;52.822;6.666;2023-08-12T12:42:07;22.80;99.90
55211;DHT22;41082;52.822;6.666;2023-08-12T12:44:33;22.90;99.90
55211;DHT22;41082;52.822;6.666;2023-08-12T12:46:58;22.80;99.90
55211;DHT22;41082;52.822;6.666;2023-08-12T12:49:24;22.70;99.90
55211;DHT22;41082;52.822;6.666;2023-08-12T12:51:50;22.60;99.90
55211;DHT22;41082;52.822;6.666;2023-08-12T12:54:16;22.50;99.90
55211;DHT22;41082;52.822;6.666;2023-08-12T12:56:41;22.50;99.90
55211;DHT22;41082;52.822;6.666;2023-08-12T12:59:07;22.50;99.90
55211;DHT22;41082;52.822;6.666;2023-08-12T13:01:33;22.50;99.90
55211;DHT22;41082;52.822;6.666;2023-08-12T13:03:58;22.40;99.90
55211;DHT22;41082;52.822;6.666;2023-08-12T13:06:24;22.40;99.90
55211;DHT22;41082;52.822;6.666;2023-08-12T13:08:49;22.40;99.90
55211;DHT22;41082;52.822;6.666;2023-08-12T13:11:15;22.50;99.90
55211;DHT22;41082;52.822;6.666;2023-08-12T13:13:41;22.50;99.90
55211;DHT22;41082;52.822;6.666;2023-08-12T13:16:07;22.40;99.90
55211;DHT22;41082;52.822;6.666;2023-08-12T13:18:34;22.50;99.90
55211;DHT22;41082;52.822;6.666;2023-08-12T13:20:59;22.50;99.90
55211;DHT22;41082;52.822;6.666;2023-08-12T13:23:25;22.50;99.90
55211;DHT22;41082;52.822;6.666;2023-08-12T13:25:52;22.60;99.90
55211;DHT22;41082;52.822;6.666;2023-08-12T13:28:17;22.60;99.90
55211;DHT22;41082;52.822;6.666;2023-08-12T13:30:44;22.50;99.90
55211;DHT22;41082;52.822;6.666;2023-08-12T13:33:10;22.50;99.90
55211;DHT22;41082;52.822;6.666;2023-08-12T13:35:35;22.50;99.90
55211;DHT22;41082;52.822;6.666;2023-08-12T13:38:01;22.50;99.90
55211;DHT22;41082;52.822;6.666;2023-08-12T13:40:26;22.50;99.90
55211;DHT22;41082;52.822;6.666;2023-08-12T13:42:52;22.50;99.90
55211;DHT22;41082;52.822;6.666;2023-08-12T13:45:18;22.60;99.90
55211;DHT22;41082;52.822;6.666;2023-08-12T13:47:43;22.50;99.90
55211;DHT22;41082;52.822;6.666;2023-08-12T13:50:09;22.60;99.90
55211;DHT22;41082;52.822;6.666;2023-08-12T13:52:35;22.60;99.90
55211;DHT22;41082;52.822;6.666;2023-08-12T13:55:01;22.60;99.90
55211;DHT22;41082;52.822;6.666;2023-08-12T13:57:26;22.60;99.90
55211;DHT22;41082;52.822;6.666;2023-08-12T13:59:52;22.60;99.90
55211;DHT22;41082;52.822;6.666;2023-08-12T14:02:17;22.70;99.90
55211;DHT22;41082;52.822;6.666;2023-08-12T14:04:43;22.70;99.90
55211;DHT22;41082;52.822;6.666;2023-08-12T14:07:09;22.70;99.90
55211;DHT22;41082;52.822;6.666;2023-08-12T14:09:34;22.70;99.90
55211;DHT22;41082;52.822;6.666;2023-08-12T14:12:00;22.70;99.90
55211;DHT22;41082;52.822;6.666;2023-08-12T14:14:26;22.70;99.90
55211;DHT22;41082;52.822;6.666;2023-08-12T14:16:55;22.80;99.90
55211;DHT22;41082;52.822;6.666;2023-08-12T14:19:20;22.80;99.90
55211;DHT22;41082;52.822;6.666;2023-08-12T14:21:46;22.90;99.90
55211;DHT22;41082;52.822;6.666;2023-08-12T14:24:12;23.00;99.90
55211;DHT22;41082;52.822;6.666;2023-08-12T14:26:39;23.00;99.90
55211;DHT22;41082;52.822;6.666;2023-08-12T14:29:04;23.10;99.90
55211;DHT22;41082;52.822;6.666;2023-08-12T14:31:30;23.10;99.90
55211;DHT22;41082;52.822;6.666;2023-08-12T14:33:55;23.10;99.90
55211;DHT22;41082;52.822;6.666;2023-08-12T14:36:21;23.30;99.90
55211;DHT22;41082;52.822;6.666;2023-08-12T14:38:47;23.40;99.90
55211;DHT22;41082;52.822;6.666;2023-08-12T14:41:12;23.50;99.90
55211;DHT22;41082;52.822;6.666;2023-08-12T14:43:38;23.50;99.90
55211;DHT22;41082;52.822;6.666;2023-08-12T14:46:03;23.60;99.90
55211;DHT22;41082;52.822;6.666;2023-08-12T14:48:31;23.70;99.90
55211;DHT22;41082;52.822;6.666;2023-08-12T14:50:57;23.70;99.90
55211;DHT22;41082;52.822;6.666;2023-08-12T14:53:23;23.80;99.90
55211;DHT22;41082;52.822;6.666;2023-08-12T14:55:49;23.80;99.90
55211;DHT22;41082;52.822;6.666;2023-08-12T14:58:15;23.90;99.90
55211;DHT22;41082;52.822;6.666;2023-08-12T15:00:40;23.80;99.90
55211;DHT22;41082;52.822;6.666;2023-08-12T15:03:06;23.80;99.90
55211;DHT22;41082;52.822;6.666;2023-08-12T15:05:31;23.80;99.90
55211;DHT22;41082;52.822;6.666;2023-08-12T15:07:57;23.80;99.90
55211;DHT22;41082;52.822;6.666;2023-08-12T15:10:22;23.80;99.90
55211;DHT22;41082;52.822;6.666;2023-08-12T15:12:48;23.90;99.90
55211;DHT22;41082;52.822;6.666;2023-08-12T15:15:14;23.90;99.90
55211;DHT22;41082;52.822;6.666;2023-08-12T15:17:39;24.00;99.90
55211;DHT22;41082;52.822;6.666;2023-08-12T15:20:05;24.00;99.90
55211;DHT22;41082;52.822;6.666;2023-08-12T15:22:31;24.00;99.90
55211;DHT22;41082;52.822;6.666;2023-08-12T15:24:57;24.00;99.90
55211;DHT22;41082;52.822;6.666;2023-08-12T15:27:23;24.10;99.90
55211;DHT22;41082;52.822;6.666;2023-08-12T15:29:49;24.00;99.90
55211;DHT22;41082;52.822;6.666;2023-08-12T15:32:14;24.00;99.90